sensor_id;sensor_type;location;lat;lon;timestamp;pressure;altitude;pressure_sealevel;temperature;humidity
70745;BME280;59284;31.390;34.904;2022-10-17T00:02:20;94961.88;;;18.98;100.00
70745;BME280;59284;31.390;34.904;2022-10-17T00:04:45;94958.44;;;19.10;100.00
70745;BME280;59284;31.390;34.904;2022-10-17T00:07:11;94961.72;;;19.07;100.00
70745;BME280;59284;31.390;34.904;2022-10-17T00:09:37;94972.50;;;19.02;100.00
70745;BME280;59284;31.390;34.904;2022-10-17T00:12:04;94972.22;;;18.91;100.00
70745;BME280;59284;31.390;34.904;2022-10-17T00:14:33;94966.25;;;18.78;100.00
70745;BME280;59284;31.390;34.904;2022-10-17T00:17:00;94961.75;;;18.79;100.00
70745;BME280;59284;31.390;34.904;2022-10-17T00:19:25;94966.69;;;18.80;100.00
70745;BME280;59284;31.390;34.904;2022-10-17T00:21:52;94965.69;;;18.85;100.00
70745;BME280;59284;31.390;34.904;2022-10-17T00:24:18;94970.41;;;18.79;100.00
70745;BME280;59284;31.390;34.904;2022-10-17T00:26:44;94968.94;;;18.66;100.00
70745;BME280;59284;31.390;34.904;2022-10-17T00:29:09;94972.44;;;18.86;100.00
70745;BME280;59284;31.390;34.904;2022-10-17T00:31:35;94974.56;;;18.80;100.00
70745;BME280;59284;31.390;34.904;2022-10-17T00:34:01;94968.97;;;18.82;100.00
70745;BME280;59284;31.390;34.904;2022-10-17T00:36:26;94974.75;;;18.87;100.00
70745;BME280;59284;31.390;34.904;2022-10-17T00:38:55;94984.91;;;19.17;100.00
70745;BME280;59284;31.390;34.904;2022-10-17T00:41:24;94978.22;;;19.35;100.00
70745;BME280;59284;31.390;34.904;2022-10-17T00:43:57;94983.22;;;19.24;100.00
70745;BME280;59284;31.390;34.904;2022-10-17T00:46:26;94983.78;;;19.61;100.00
70745;BME280;59284;31.390;34.904;2022-10-17T00:48:53;94986.56;;;19.37;100.00
70745;BME280;59284;31.390;34.904;2022-10-17T00:51:24;94993.47;;;19.14;100.00
70745;BME280;59284;31.390;34.904;2022-10-17T00:53:52;94989.31;;;19.13;100.00
70745;BME280;59284;31.390;34.904;2022-10-17T00:56:19;94994.22;;;18.99;100.00
70745;BME280;59284;31.390;34.904;2022-10-17T00:58:46;94994.22;;;18.99;100.00
70745;BME280;59284;31.390;34.904;2022-10-17T01:01:13;95001.28;;;19.10;100.00
70745;BME280;59284;31.390;34.904;2022-10-17T01:03:38;95008.28;;;19.34;100.00
70745;BME280;59284;31.390;34.904;2022-10-17T01:06:04;95004.28;;;18.97;100.00
70745;BME280;59284;31.390;34.904;2022-10-17T01:08:30;94995.97;;;18.95;100.00
70745;BME280;59284;31.390;34.904;2022-10-17T01:13:58;95012.84;;;18.93;100.00
70745;BME280;59284;31.390;34.904;2022-10-17T01:16:33;95013.56;;;19.06;100.00
70745;BME280;59284;31.390;34.904;2022-10-17T01:19:23;95009.13;;;18.95;100.00
70745;BME280;59284;31.390;34.904;2022-10-17T01:22:01;95020.16;;;19.00;100.00
70745;BME280;59284;31.390;34.904;2022-10-17T01:24:46;95027.97;;;18.97;100.00
70745;BME280;59284;31.390;34.904;2022-10-17T01:35:36;95005.56;;;18.75;100.00
70745;BME280;59284;31.390;34.904;2022-10-17T01:38:11;94999.75;;;18.81;100.00
70745;BME280;59284;31.390;34.904;2022-10-17T01:40:41;95000.78;;;18.92;100.00
70745;BME280;59284;31.390;34.904;2022-10-17T01:43:23;94990.19;;;18.89;100.00
70745;BME280;59284;31.390;34.904;2022-10-17T01:46:14;94992.34;;;18.71;100.00
70745;BME280;59284;31.390;34.904;2022-10-17T01:48:45;94992.09;;;18.76;100.00
70745;BME280;59284;31.390;34.904;2022-10-17T01:51:27;95001.59;;;18.81;100.00
70745;BME280;59284;31.390;34.904;2022-10-17T01:54:01;95005.69;;;18.78;100.00
70745;BME280;59284;31.390;34.904;2022-10-17T01:56:30;95008.13;;;18.71;100.00
70745;BME280;59284;31.390;34.904;2022-10-17T01:59:04;95012.56;;;18.83;100.00
70745;BME280;59284;31.390;34.904;2022-10-17T02:01:31;95014.66;;;18.77;100.00
70745;BME280;59284;31.390;34.904;2022-10-17T02:03:59;95031.19;;;18.78;100.00
70745;BME280;59284;31.390;34.904;2022-10-17T02:06:25;95029.81;;;18.68;100.00
70745;BME280;59284;31.390;34.904;2022-10-17T02:08:51;95026.50;;;18.71;100.00
70745;BME280;59284;31.390;34.904;2022-10-17T02:11:22;95027.94;;;18.69;100.00
70745;BME280;59284;31.390;34.904;2022-10-17T02:22:15;95032.28;;;18.77;100.00
70745;BME280;59284;31.390;34.904;2022-10-17T02:25:15;95039.53;;;18.68;100.00
70745;BME280;59284;31.390;34.904;2022-10-17T02:30:30;95046.91;;;18.62;100.00
70745;BME280;59284;31.390;34.904;2022-10-17T02:33:08;95046.47;;;18.36;100.00
70745;BME280;59284;31.390;34.904;2022-10-17T02:35:37;95046.56;;;18.64;100.00
70745;BME280;59284;31.390;34.904;2022-10-17T02:38:05;95043.72;;;18.45;100.00
70745;BME280;59284;31.390;34.904;2022-10-17T02:40:32;95049.31;;;18.31;100.00
70745;BME280;59284;31.390;34.904;2022-10-17T02:42:59;95042.84;;;18.41;100.00
70745;BME280;59284;31.390;34.904;2022-10-17T02:45:27;95048.44;;;18.51;100.00
70745;BME280;59284;31.390;34.904;2022-10-17T02:48:04;95047.78;;;18.54;100.00
70745;BME280;59284;31.390;34.904;2022-10-17T02:53:14;95057.53;;;18.54;100.00
70745;BME280;59284;31.390;34.904;2022-10-17T02:56:03;95063.09;;;18.64;100.00
70745;BME280;59284;31.390;34.904;2022-10-17T02:58:32;95061.34;;;18.56;100.00
70745;BME280;59284;31.390;34.904;2022-10-17T03:01:00;95061.47;;;18.48;100.00
70745;BME280;59284;31.390;34.904;2022-10-17T03:03:28;95071.09;;;18.44;100.00
70745;BME280;59284;31.390;34.904;2022-10-17T03:05:54;95072.72;;;18.60;100.00
70745;BME280;59284;31.390;34.904;2022-10-17T03:08:21;95070.44;;;18.47;100.00
70745;BME280;59284;31.390;34.904;2022-10-17T03:10:47;95072.34;;;18.46;100.00
70745;BME280;59284;31.390;34.904;2022-10-17T03:13:13;95071.66;;;18.25;100.00
70745;BME280;59284;31.390;34.904;2022-10-17T03:15:39;95070.56;;;18.26;100.00
70745;BME280;59284;31.390;34.904;2022-10-17T03:18:05;95078.56;;;18.42;100.00
70745;BME280;59284;31.390;34.904;2022-10-17T03:20:31;95078.00;;;18.36;100.00
70745;BME280;59284;31.390;34.904;2022-10-17T03:22:57;95079.97;;;18.15;100.00
70745;BME280;59284;31.390;34.904;2022-10-17T03:25:22;95087.63;;;18.32;100.00
70745;BME280;59284;31.390;34.904;2022-10-17T03:27:48;95083.72;;;18.50;100.00
70745;BME280;59284;31.390;34.904;2022-10-17T03:30:14;95083.81;;;18.30;100.00
70745;BME280;59284;31.390;34.904;2022-10-17T03:32:40;95090.47;;;18.27;100.00
70745;BME280;59284;31.390;34.904;2022-10-17T03:35:06;95085.44;;;18.34;100.00
70745;BME280;59284;31.390;34.904;2022-10-17T03:37:31;95079.19;;;18.27;100.00
70745;BME280;59284;31.390;34.904;2022-10-17T03:39:57;95089.94;;;18.09;100.00
70745;BME280;59284;31.390;34.904;2022-10-17T03:42:23;95079.97;;;18.03;100.00
70745;BME280;59284;31.390;34.904;2022-10-17T03:44:49;95081.59;;;18.32;100.00
70745;BME280;59284;31.390;34.904;2022-10-17T03:47:14;95080.22;;;18.46;100.00
70745;BME280;59284;31.390;34.904;2022-10-17T03:49:40;95086.88;;;18.32;100.00
70745;BME280;59284;31.390;34.904;2022-10-17T03:52:16;95092.00;;;18.28;100.00
70745;BME280;59284;31.390;34.904;2022-10-17T03:54:42;95088.38;;;18.33;100.00
70745;BME280;59284;31.390;34.904;2022-10-17T03:57:08;95081.69;;;18.35;100.00
70745;BME280;59284;31.390;34.904;2022-10-17T03:59:33;95090.47;;;18.39;100.00
70745;BME280;59284;31.390;34.904;2022-10-17T04:01:59;95091.22;;;18.40;100.00
70745;BME280;59284;31.390;34.904;2022-10-17T04:04:25;95087.50;;;18.41;100.00
70745;BME280;59284;31.390;34.904;2022-10-17T04:06:50;95095.63;;;18.48;100.00
70745;BME280;59284;31.390;34.904;2022-10-17T04:09:16;95103.81;;;18.34;100.00
70745;BME280;59284;31.390;34.904;2022-10-17T04:11:42;95100.56;;;18.37;100.00
70745;BME280;59284;31.390;34.904;2022-10-17T04:14:08;95103.63;;;18.39;100.00
70745;BME280;59284;31.390;34.904;2022-10-17T04:16:34;95108.97;;;18.43;100.00
70745;BME280;59284;31.390;34.904;2022-10-17T04:19:00;95116.50;;;18.44;100.00
70745;BME280;59284;31.390;34.904;2022-10-17T04:21:27;95114.22;;;18.43;100.00
70745;BME280;59284;31.390;34.904;2022-10-17T04:23:55;95102.75;;;18.47;100.00
70745;BME280;59284;31.390;34.904;2022-10-17T04:26:21;95115.88;;;18.47;100.00
70745;BME280;59284;31.390;34.904;2022-10-17T04:28:48;95119.06;;;18.53;100.00
70745;BME280;59284;31.390;34.904;2022-10-17T04:31:16;95121.47;;;18.58;100.00
70745;BME280;59284;31.390;34.904;2022-10-17T04:33:46;95123.19;;;18.66;100.00
70745;BME280;59284;31.390;34.904;2022-10-17T04:36:14;95123.53;;;18.64;100.00
70745;BME280;59284;31.390;34.904;2022-10-17T04:38:40;95124.50;;;18.72;100.00
70745;BME280;59284;31.390;34.904;2022-10-17T04:41:09;95126.59;;;18.78;100.00
70745;BME280;59284;31.390;34.904;2022-10-17T04:43:37;95127.44;;;18.82;100.00
70745;BME280;59284;31.390;34.904;2022-10-17T04:46:06;95126.78;;;18.85;100.00
70745;BME280;59284;31.390;34.904;2022-10-17T04:48:32;95132.22;;;18.92;100.00
70745;BME280;59284;31.390;34.904;2022-10-17T04:51:00;95136.84;;;18.96;100.00
70745;BME280;59284;31.390;34.904;2022-10-17T04:53:27;95134.53;;;18.94;100.00
70745;BME280;59284;31.390;34.904;2022-10-17T04:55:53;95135.28;;;19.07;100.00
70745;BME280;59284;31.390;34.904;2022-10-17T04:58:19;95145.22;;;19.13;100.00
70745;BME280;59284;31.390;34.904;2022-10-17T05:00:45;95138.88;;;19.14;100.00
70745;BME280;59284;31.390;34.904;2022-10-17T05:03:11;95149.50;;;19.18;100.00
70745;BME280;59284;31.390;34.904;2022-10-17T05:05:37;95146.72;;;19.38;100.00
70745;BME280;59284;31.390;34.904;2022-10-17T05:08:04;95149.66;;;19.37;100.00
70745;BME280;59284;31.390;34.904;2022-10-17T05:10:38;95139.78;;;19.46;100.00
70745;BME280;59284;31.390;34.904;2022-10-17T05:13:04;95148.19;;;19.51;100.00
70745;BME280;59284;31.390;34.904;2022-10-17T05:15:30;95143.78;;;19.55;100.00
70745;BME280;59284;31.390;34.904;2022-10-17T05:17:56;95145.34;;;19.56;100.00
70745;BME280;59284;31.390;34.904;2022-10-17T05:20:22;95151.31;;;19.85;100.00
70745;BME280;59284;31.390;34.904;2022-10-17T05:22:48;95147.94;;;19.84;100.00
70745;BME280;59284;31.390;34.904;2022-10-17T05:25:14;95146.50;;;19.87;100.00
70745;BME280;59284;31.390;34.904;2022-10-17T05:27:40;95158.06;;;20.13;100.00
70745;BME280;59284;31.390;34.904;2022-10-17T05:30:06;95156.06;;;20.22;100.00
70745;BME280;59284;31.390;34.904;2022-10-17T05:32:32;95162.50;;;20.09;100.00
70745;BME280;59284;31.390;34.904;2022-10-17T05:34:58;95164.66;;;20.35;100.00
70745;BME280;59284;31.390;34.904;2022-10-17T05:37:24;95163.94;;;20.38;100.00
70745;BME280;59284;31.390;34.904;2022-10-17T05:40:15;95175.19;;;20.51;100.00
70745;BME280;59284;31.390;34.904;2022-10-17T05:42:45;95178.66;;;20.39;100.00
70745;BME280;59284;31.390;34.904;2022-10-17T05:45:16;95178.16;;;20.65;100.00
70745;BME280;59284;31.390;34.904;2022-10-17T05:47:43;95174.44;;;20.85;100.00
70745;BME280;59284;31.390;34.904;2022-10-17T05:50:13;95180.63;;;20.58;100.00
70745;BME280;59284;31.390;34.904;2022-10-17T05:52:38;95185.22;;;20.29;100.00
70745;BME280;59284;31.390;34.904;2022-10-17T05:55:07;95188.00;;;20.68;100.00
70745;BME280;59284;31.390;34.904;2022-10-17T05:57:34;95193.53;;;20.63;100.00
70745;BME280;59284;31.390;34.904;2022-10-17T06:00:01;95185.97;;;21.12;100.00
70745;BME280;59284;31.390;34.904;2022-10-17T06:02:28;95188.06;;;20.87;100.00
70745;BME280;59284;31.390;34.904;2022-10-17T06:04:54;95192.00;;;21.47;100.00
70745;BME280;59284;31.390;34.904;2022-10-17T06:07:19;95194.31;;;21.14;100.00
70745;BME280;59284;31.390;34.904;2022-10-17T06:09:49;95197.34;;;21.31;100.00
70745;BME280;59284;31.390;34.904;2022-10-17T06:12:39;95193.94;;;21.69;100.00
70745;BME280;59284;31.390;34.904;2022-10-17T06:15:07;95198.81;;;21.48;100.00
70745;BME280;59284;31.390;34.904;2022-10-17T06:17:33;95205.56;;;21.11;100.00
70745;BME280;59284;31.390;34.904;2022-10-17T06:19:59;95204.44;;;21.65;100.00
70745;BME280;59284;31.390;34.904;2022-10-17T06:22:24;95206.84;;;21.74;100.00
70745;BME280;59284;31.390;34.904;2022-10-17T06:24:50;95205.63;;;21.68;100.00
70745;BME280;59284;31.390;34.904;2022-10-17T06:27:18;95200.91;;;22.19;100.00
70745;BME280;59284;31.390;34.904;2022-10-17T06:29:45;95206.34;;;21.84;100.00
70745;BME280;59284;31.390;34.904;2022-10-17T06:32:11;95206.41;;;22.10;100.00
70745;BME280;59284;31.390;34.904;2022-10-17T06:34:36;95201.22;;;22.14;100.00
70745;BME280;59284;31.390;34.904;2022-10-17T06:37:02;95205.31;;;22.34;100.00
70745;BME280;59284;31.390;34.904;2022-10-17T06:39:28;95216.13;;;22.03;100.00
70745;BME280;59284;31.390;34.904;2022-10-17T06:41:59;95201.84;;;22.30;100.00
70745;BME280;59284;31.390;34.904;2022-10-17T06:44:25;95199.28;;;22.56;100.00
70745;BME280;59284;31.390;34.904;2022-10-17T06:46:55;95189.75;;;23.00;100.00
70745;BME280;59284;31.390;34.904;2022-10-17T06:49:21;95193.25;;;22.59;100.00
70745;BME280;59284;31.390;34.904;2022-10-17T06:51:47;95182.84;;;22.92;100.00
70745;BME280;59284;31.390;34.904;2022-10-17T06:54:12;95184.16;;;23.05;100.00
70745;BME280;59284;31.390;34.904;2022-10-17T06:56:38;95181.13;;;23.33;100.00
70745;BME280;59284;31.390;34.904;2022-10-17T06:59:04;95178.84;;;22.79;100.00
70745;BME280;59284;31.390;34.904;2022-10-17T07:01:30;95186.47;;;22.81;100.00
70745;BME280;59284;31.390;34.904;2022-10-17T07:03:56;95185.06;;;22.64;100.00
70745;BME280;59284;31.390;34.904;2022-10-17T07:06:22;95178.56;;;23.11;100.00
70745;BME280;59284;31.390;34.904;2022-10-17T07:08:51;95176.00;;;23.18;100.00
70745;BME280;59284;31.390;34.904;2022-10-17T07:11:20;95175.28;;;23.80;100.00
70745;BME280;59284;31.390;34.904;2022-10-17T07:13:47;95178.72;;;23.51;100.00
70745;BME280;59284;31.390;34.904;2022-10-17T07:16:14;95175.66;;;23.49;100.00
70745;BME280;59284;31.390;34.904;2022-10-17T07:18:40;95172.41;;;23.33;100.00
70745;BME280;59284;31.390;34.904;2022-10-17T07:21:07;95169.59;;;23.48;100.00
70745;BME280;59284;31.390;34.904;2022-10-17T07:23:33;95181.97;;;23.11;100.00
70745;BME280;59284;31.390;34.904;2022-10-17T07:26:03;95178.63;;;23.44;100.00
70745;BME280;59284;31.390;34.904;2022-10-17T07:28:36;95172.97;;;23.16;100.00
70745;BME280;59284;31.390;34.904;2022-10-17T07:31:06;95176.34;;;23.76;100.00
70745;BME280;59284;31.390;34.904;2022-10-17T07:33:32;95176.13;;;23.54;100.00
70745;BME280;59284;31.390;34.904;2022-10-17T07:35:59;95172.97;;;23.79;100.00
70745;BME280;59284;31.390;34.904;2022-10-17T07:38:26;95182.91;;;23.85;100.00
70745;BME280;59284;31.390;34.904;2022-10-17T07:40:57;95177.38;;;23.67;100.00
70745;BME280;59284;31.390;34.904;2022-10-17T07:43:23;95184.56;;;24.00;100.00
70745;BME280;59284;31.390;34.904;2022-10-17T07:45:50;95183.38;;;23.94;100.00
70745;BME280;59284;31.390;34.904;2022-10-17T07:48:16;95195.19;;;24.04;100.00
70745;BME280;59284;31.390;34.904;2022-10-17T07:50:41;95190.72;;;24.08;100.00
70745;BME280;59284;31.390;34.904;2022-10-17T07:53:07;95178.22;;;24.52;100.00
70745;BME280;59284;31.390;34.904;2022-10-17T07:55:33;95193.66;;;24.83;100.00
70745;BME280;59284;31.390;34.904;2022-10-17T07:58:00;95190.78;;;23.82;100.00
70745;BME280;59284;31.390;34.904;2022-10-17T08:00:26;95185.56;;;24.69;100.00
70745;BME280;59284;31.390;34.904;2022-10-17T08:02:52;95188.16;;;24.15;100.00
70745;BME280;59284;31.390;34.904;2022-10-17T08:05:17;95186.81;;;24.79;100.00
70745;BME280;59284;31.390;34.904;2022-10-17T08:07:43;95188.94;;;24.63;100.00
70745;BME280;59284;31.390;34.904;2022-10-17T08:10:14;95184.22;;;24.05;100.00
70745;BME280;59284;31.390;34.904;2022-10-17T08:12:40;95180.31;;;25.34;100.00
70745;BME280;59284;31.390;34.904;2022-10-17T08:15:06;95191.78;;;24.40;100.00
70745;BME280;59284;31.390;34.904;2022-10-17T08:18:00;95185.13;;;24.64;100.00
70745;BME280;59284;31.390;34.904;2022-10-17T08:20:27;95182.84;;;24.59;100.00
70745;BME280;59284;31.390;34.904;2022-10-17T08:22:54;95181.69;;;25.97;100.00
70745;BME280;59284;31.390;34.904;2022-10-17T08:25:20;95187.91;;;28.62;100.00
70745;BME280;59284;31.390;34.904;2022-10-17T08:27:47;95190.94;;;29.49;100.00
70745;BME280;59284;31.390;34.904;2022-10-17T08:30:14;95178.00;;;29.44;100.00
70745;BME280;59284;31.390;34.904;2022-10-17T08:32:42;95190.06;;;29.22;100.00
70745;BME280;59284;31.390;34.904;2022-10-17T08:35:08;95187.56;;;30.59;100.00
70745;BME280;59284;31.390;34.904;2022-10-17T08:37:34;95176.56;;;30.27;100.00
70745;BME280;59284;31.390;34.904;2022-10-17T08:40:00;95186.44;;;31.26;100.00
70745;BME280;59284;31.390;34.904;2022-10-17T08:47:53;95186.56;;;30.73;100.00
70745;BME280;59284;31.390;34.904;2022-10-17T08:50:34;95175.22;;;32.42;100.00
70745;BME280;59284;31.390;34.904;2022-10-17T08:53:13;95166.88;;;31.49;100.00
70745;BME280;59284;31.390;34.904;2022-10-17T08:55:45;95158.63;;;32.79;100.00
70745;BME280;59284;31.390;34.904;2022-10-17T08:58:22;95174.94;;;30.60;100.00
70745;BME280;59284;31.390;34.904;2022-10-17T09:07:09;95166.06;;;31.87;100.00
70745;BME280;59284;31.390;34.904;2022-10-17T09:18:32;95167.72;;;33.01;100.00
70745;BME280;59284;31.390;34.904;2022-10-17T09:21:41;95165.47;;;31.41;100.00
70745;BME280;59284;31.390;34.904;2022-10-17T09:27:02;95160.47;;;34.22;100.00
70745;BME280;59284;31.390;34.904;2022-10-17T09:29:29;95157.38;;;33.29;100.00
70745;BME280;59284;31.390;34.904;2022-10-17T09:32:07;95171.63;;;30.75;100.00
70745;BME280;59284;31.390;34.904;2022-10-17T09:34:37;95156.63;;;34.23;100.00
70745;BME280;59284;31.390;34.904;2022-10-17T09:37:03;95153.88;;;34.48;100.00
70745;BME280;59284;31.390;34.904;2022-10-17T09:39:35;95154.66;;;34.62;100.00
70745;BME280;59284;31.390;34.904;2022-10-17T09:42:01;95155.03;;;31.66;100.00
70745;BME280;59284;31.390;34.904;2022-10-17T09:44:38;95155.69;;;32.25;100.00
70745;BME280;59284;31.390;34.904;2022-10-17T09:47:21;95144.16;;;33.34;100.00
70745;BME280;59284;31.390;34.904;2022-10-17T09:49:49;95160.78;;;31.25;100.00
70745;BME280;59284;31.390;34.904;2022-10-17T09:52:19;95156.97;;;32.85;100.00
70745;BME280;59284;31.390;34.904;2022-10-17T09:55:10;95148.16;;;32.52;100.00
70745;BME280;59284;31.390;34.904;2022-10-17T10:00:24;95156.88;;;33.46;100.00
70745;BME280;59284;31.390;34.904;2022-10-17T10:02:50;95145.13;;;32.83;100.00
70745;BME280;59284;31.390;34.904;2022-10-17T10:05:33;95151.94;;;32.55;100.00
70745;BME280;59284;31.390;34.904;2022-10-17T10:08:16;95141.19;;;36.04;100.00
70745;BME280;59284;31.390;34.904;2022-10-17T10:10:44;95151.59;;;33.71;100.00
70745;BME280;59284;31.390;34.904;2022-10-17T10:15:44;95159.16;;;33.89;100.00
70745;BME280;59284;31.390;34.904;2022-10-17T10:18:27;95136.41;;;35.34;100.00
70745;BME280;59284;31.390;34.904;2022-10-17T10:21:16;95141.50;;;32.25;100.00
70745;BME280;59284;31.390;34.904;2022-10-17T10:23:45;95135.38;;;33.46;100.00
70745;BME280;59284;31.390;34.904;2022-10-17T10:26:46;95123.16;;;32.72;100.00
70745;BME280;59284;31.390;34.904;2022-10-17T10:32:28;95129.84;;;33.66;100.00
70745;BME280;59284;31.390;34.904;2022-10-17T10:35:23;95145.03;;;32.38;100.00
70745;BME280;59284;31.390;34.904;2022-10-17T10:37:54;95122.69;;;34.26;100.00
70745;BME280;59284;31.390;34.904;2022-10-17T10:46:27;95124.81;;;32.33;100.00
70745;BME280;59284;31.390;34.904;2022-10-17T10:48:56;95114.00;;;35.68;100.00
70745;BME280;59284;31.390;34.904;2022-10-17T10:51:33;95115.53;;;34.91;100.00
70745;BME280;59284;31.390;34.904;2022-10-17T10:59:11;95116.81;;;34.65;100.00
70745;BME280;59284;31.390;34.904;2022-10-17T11:01:47;95113.66;;;35.13;100.00
70745;BME280;59284;31.390;34.904;2022-10-17T11:07:44;95126.25;;;31.86;100.00
70745;BME280;59284;31.390;34.904;2022-10-17T11:12:59;95115.09;;;32.39;100.00
70745;BME280;59284;31.390;34.904;2022-10-17T11:18:44;95110.47;;;34.34;100.00
70745;BME280;59284;31.390;34.904;2022-10-17T11:21:15;95113.47;;;33.60;100.00
70745;BME280;59284;31.390;34.904;2022-10-17T11:24:05;95109.06;;;33.54;100.00
70745;BME280;59284;31.390;34.904;2022-10-17T11:27:03;95103.88;;;34.60;100.00
70745;BME280;59284;31.390;34.904;2022-10-17T11:29:40;95127.81;;;32.03;100.00
70745;BME280;59284;31.390;34.904;2022-10-17T11:32:23;95105.66;;;32.80;100.00
70745;BME280;59284;31.390;34.904;2022-10-17T11:35:29;95105.03;;;36.69;98.52
70745;BME280;59284;31.390;34.904;2022-10-17T11:41:03;95096.13;;;35.40;100.00
70745;BME280;59284;31.390;34.904;2022-10-17T11:43:39;95102.84;;;32.83;100.00
70745;BME280;59284;31.390;34.904;2022-10-17T11:46:17;95094.59;;;34.61;100.00
70745;BME280;59284;31.390;34.904;2022-10-17T11:51:37;95098.66;;;33.68;100.00
70745;BME280;59284;31.390;34.904;2022-10-17T11:54:30;95098.03;;;32.46;100.00
70745;BME280;59284;31.390;34.904;2022-10-17T11:57:43;95094.25;;;33.33;100.00
70745;BME280;59284;31.390;34.904;2022-10-17T12:00:33;95103.31;;;32.01;100.00
70745;BME280;59284;31.390;34.904;2022-10-17T12:05:59;95080.72;;;35.49;100.00
70745;BME280;59284;31.390;34.904;2022-10-17T12:08:52;95088.00;;;34.96;100.00
70745;BME280;59284;31.390;34.904;2022-10-17T12:14:40;95097.03;;;34.21;100.00
70745;BME280;59284;31.390;34.904;2022-10-17T12:17:29;95107.50;;;34.79;100.00
70745;BME280;59284;31.390;34.904;2022-10-17T12:22:54;95095.13;;;36.66;100.00
70745;BME280;59284;31.390;34.904;2022-10-17T12:25:26;95093.00;;;32.93;100.00
70745;BME280;59284;31.390;34.904;2022-10-17T12:46:50;95096.94;;;31.40;100.00
70745;BME280;59284;31.390;34.904;2022-10-17T12:49:41;95098.59;;;34.91;100.00
70745;BME280;59284;31.390;34.904;2022-10-17T12:55:11;95107.03;;;34.33;100.00
70745;BME280;59284;31.390;34.904;2022-10-17T12:58:03;95109.13;;;33.09;100.00
70745;BME280;59284;31.390;34.904;2022-10-17T13:00:54;95103.22;;;36.66;100.00
70745;BME280;59284;31.390;34.904;2022-10-17T13:03:32;95111.03;;;32.47;100.00
70745;BME280;59284;31.390;34.904;2022-10-17T13:06:04;95119.00;;;34.32;100.00
70745;BME280;59284;31.390;34.904;2022-10-17T13:08:36;95116.03;;;36.83;100.00
70745;BME280;59284;31.390;34.904;2022-10-17T13:11:11;95109.03;;;35.45;100.00
70745;BME280;59284;31.390;34.904;2022-10-17T13:13:44;95116.16;;;35.51;100.00
70745;BME280;59284;31.390;34.904;2022-10-17T13:19:29;95122.38;;;34.71;100.00
70745;BME280;59284;31.390;34.904;2022-10-17T13:22:00;95124.34;;;33.69;100.00
70745;BME280;59284;31.390;34.904;2022-10-17T13:24:35;95127.50;;;32.33;100.00
70745;BME280;59284;31.390;34.904;2022-10-17T13:27:02;95119.00;;;34.20;100.00
70745;BME280;59284;31.390;34.904;2022-10-17T13:29:28;95122.94;;;33.52;100.00
70745;BME280;59284;31.390;34.904;2022-10-17T13:32:02;95122.63;;;33.21;100.00
70745;BME280;59284;31.390;34.904;2022-10-17T13:34:29;95131.03;;;30.77;100.00
70745;BME280;59284;31.390;34.904;2022-10-17T13:37:06;95127.25;;;31.17;100.00
70745;BME280;59284;31.390;34.904;2022-10-17T13:39:42;95137.06;;;31.04;100.00
70745;BME280;59284;31.390;34.904;2022-10-17T13:42:29;95144.03;;;30.55;100.00
70745;BME280;59284;31.390;34.904;2022-10-17T13:44:56;95144.25;;;29.88;100.00
70745;BME280;59284;31.390;34.904;2022-10-17T13:47:26;95139.50;;;31.38;100.00
70745;BME280;59284;31.390;34.904;2022-10-17T13:49:53;95119.44;;;31.26;100.00
70745;BME280;59284;31.390;34.904;2022-10-17T13:52:22;95140.63;;;30.74;100.00
70745;BME280;59284;31.390;34.904;2022-10-17T13:54:52;95141.13;;;31.32;100.00
70745;BME280;59284;31.390;34.904;2022-10-17T13:57:26;95149.91;;;29.63;100.00
70745;BME280;59284;31.390;34.904;2022-10-17T13:59:58;95143.84;;;30.42;100.00
70745;BME280;59284;31.390;34.904;2022-10-17T14:02:29;95147.72;;;30.38;100.00
70745;BME280;59284;31.390;34.904;2022-10-17T14:10:29;95151.97;;;30.09;100.00
70745;BME280;59284;31.390;34.904;2022-10-17T14:12:56;95159.22;;;28.18;100.00
70745;BME280;59284;31.390;34.904;2022-10-17T14:15:27;95158.81;;;29.19;100.00
70745;BME280;59284;31.390;34.904;2022-10-17T14:18:02;95160.13;;;29.38;100.00
70745;BME280;59284;31.390;34.904;2022-10-17T14:20:30;95154.28;;;28.72;100.00
70745;BME280;59284;31.390;34.904;2022-10-17T14:22:56;95159.44;;;27.83;100.00
70745;BME280;59284;31.390;34.904;2022-10-17T14:25:30;95173.34;;;27.14;100.00
70745;BME280;59284;31.390;34.904;2022-10-17T14:30:40;95181.00;;;26.74;100.00
70745;BME280;59284;31.390;34.904;2022-10-17T14:33:12;95183.66;;;27.09;100.00
70745;BME280;59284;31.390;34.904;2022-10-17T14:35:39;95185.59;;;26.52;100.00
70745;BME280;59284;31.390;34.904;2022-10-17T14:38:15;95195.63;;;25.65;100.00
70745;BME280;59284;31.390;34.904;2022-10-17T14:40:49;95188.44;;;25.62;100.00
70745;BME280;59284;31.390;34.904;2022-10-17T14:43:20;95193.75;;;25.69;100.00
70745;BME280;59284;31.390;34.904;2022-10-17T14:45:46;95184.22;;;24.46;100.00
70745;BME280;59284;31.390;34.904;2022-10-17T14:48:15;95197.81;;;24.40;100.00
70745;BME280;59284;31.390;34.904;2022-10-17T14:51:09;95194.75;;;23.65;100.00
70745;BME280;59284;31.390;34.904;2022-10-17T14:53:36;95199.50;;;23.49;100.00
70745;BME280;59284;31.390;34.904;2022-10-17T14:56:19;95196.94;;;22.28;100.00
70745;BME280;59284;31.390;34.904;2022-10-17T14:58:45;95207.22;;;22.56;100.00
70745;BME280;59284;31.390;34.904;2022-10-17T15:01:11;95204.66;;;22.18;100.00
70745;BME280;59284;31.390;34.904;2022-10-17T15:03:37;95213.44;;;21.64;100.00
70745;BME280;59284;31.390;34.904;2022-10-17T15:06:17;95217.47;;;21.39;100.00